Flight Track Log - Related Links

Times and Time Zones

All times are in EDT time to prevent confusion due to time zone crossing. See the SWA554 flight status page for this flight to view local times or setup timezone preferences in your user account.

Time Position Orientation Groundspeed Altitude Reporting Facility
EDT Latitude Longitude Course Direction KTS MPH feet Rate Location/Type
Fri 10:55:23 AM 33.4333 -111.9333 90° East 206 237 3,400  Level Phoenix TRACON
Fri 10:56:04 AM 33.4356 -111.8881 87° East 230 265 5,500 2,971 Climbing Albuquerque Center
Fri 10:57:06 AM 33.4667 -111.8058 66° East 284 327 8,500 2,661 Climbing Albuquerque Center
Fri 10:58:08 AM 33.5158 -111.7172 56° Northeast 324 373 11,000 2,758 Climbing Albuquerque Center
Fri 10:59:10 AM 33.5614 -111.6100 63° Northeast 364 419 14,200 3,145 Climbing Albuquerque Center
Fri 11:00:00 AM 33.7045 -111.2065 67° East  Level FlightAware Approximate
Fri 11:00:12 AM 33.6144 -111.4667 66° East 393 452 17,500  Level Albuquerque Center
Fri 11:01:14 AM 33.6614 -111.3419 66° East 413 475 20,500 2,710 Climbing Albuquerque Center
Fri 11:02:16 AM 33.7078 -111.2144 66° East 420 483 23,100 2,226 Climbing Albuquerque Center
Fri 11:03:18 AM 33.7550 -111.0806 67° East 438 504 25,100 1,887 Climbing Albuquerque Center
Fri 11:04:20 AM 33.8044 -110.9406 67° East 454 522 27,000 1,984 Climbing Albuquerque Center
Fri 11:05:22 AM 33.8658 -110.7675 67° East 466 536 29,200 1,694 Climbing Albuquerque Center
Fri 11:06:24 AM 33.9169 -110.6203 67° East 475 547 30,500 1,500 Climbing Albuquerque Center
Fri 11:07:26 AM 33.9717 -110.4669 67° East 491 565 32,300 1,694 Climbing Albuquerque Center
Fri 11:08:28 AM 34.0225 -110.3211 67° East 492 566 34,000 1,597 Climbing Albuquerque Center
Fri 11:09:30 AM 34.0744 -110.1708 67° East 489 563 35,600 1,452 Climbing Albuquerque Center
Fri 11:10:32 AM 34.1361 -109.9933 67° East 489 563 37,000 677 Climbing Albuquerque Center
Fri 11:11:34 AM 34.2136 -109.8336 60° Northeast 496 571 37,000  Level Albuquerque Center
Fri 11:12:36 AM 34.2872 -109.7033 56° Northeast 493 567 37,000  Level Albuquerque Center
Fri 11:13:38 AM 34.3597 -109.5692 57° Northeast 495 570 37,000  Level Albuquerque Center
Fri 11:14:40 AM 34.4428 -109.4147 57° Northeast 492 566 37,000  Level Albuquerque Center
Fri 11:15:42 AM 34.5139 -109.2806 57° Northeast 494 568 37,000  Level Albuquerque Center
Fri 11:16:45 AM 34.5972 -109.1269 57° Northeast 491 565 37,000  Level Albuquerque Center
Fri 11:17:46 AM 34.6672 -108.9950 57° Northeast 488 562 37,000  Level Albuquerque Center
Fri 11:18:48 AM 34.7494 -108.8422 57° Northeast 486 559 37,000  Level Albuquerque Center
Fri 11:19:50 AM 34.8186 -108.7086 58° Northeast 486 559 37,000  Level Albuquerque Center
Fri 11:20:53 AM 34.9003 -108.5567 57° Northeast 483 556 37,000  Level Albuquerque Center
Fri 11:21:55 AM 34.9700 -108.4244 57° Northeast 484 557 37,000  Level Albuquerque Center
Fri 11:22:57 AM 35.0506 -108.2700 57° Northeast 484 557 37,000  Level Albuquerque Center
Fri 11:23:59 AM 35.1211 -108.1364 57° Northeast 487 560 37,000  Level Albuquerque Center
Fri 11:25:01 AM 35.2014 -107.9808 58° Northeast 486 559 37,000  Level Albuquerque Center
Fri 11:26:03 AM 35.2706 -107.8469 58° Northeast 487 560 37,000  Level Albuquerque Center
Fri 11:27:05 AM 35.3494 -107.6925 58° Northeast 483 556 37,000  Level Albuquerque Center
Fri 11:28:07 AM 35.4192 -107.5592 57° Northeast 484 557 37,000  Level Albuquerque Center
Fri 11:29:09 AM 35.4992 -107.4017 58° Northeast 487 560 37,000  Level Albuquerque Center
Fri 11:30:11 AM 35.5669 -107.2678 58° Northeast 485 558 37,000  Level Albuquerque Center
Fri 11:31:13 AM 35.6467 -107.1097 58° Northeast 487 560 37,000  Level Albuquerque Center
Fri 11:32:15 AM 35.7133 -106.9736 59° Northeast 487 560 37,000  Level Albuquerque Center
Fri 11:33:17 AM 35.7942 -106.8161 58° Northeast 487 560 37,000  Level Albuquerque Center
Fri 11:34:19 AM 35.8636 -106.6778 58° Northeast 492 566 37,000  Level Albuquerque Center
Fri 11:35:21 AM 35.9414 -106.5203 59° Northeast 492 566 37,000  Level Albuquerque Center
Fri 11:36:23 AM 36.0139 -106.3772 58° Northeast 492 566 37,000  Level Albuquerque Center
Fri 11:37:25 AM 36.0847 -106.2322 59° Northeast 491 565 37,000  Level Albuquerque Center
Fri 11:38:27 AM 36.1536 -106.0844 60° Northeast 494 568 37,000  Level Albuquerque Center
Fri 11:39:29 AM 36.2258 -105.9458 57° Northeast 484 557 37,000  Level Albuquerque Center
Fri 11:40:31 AM 36.2933 -105.7989 60° Northeast 488 562 37,000  Level Albuquerque Center
Fri 11:41:33 AM 36.3619 -105.6567 59° Northeast 485 558 37,000  Level Albuquerque Center
Fri 11:42:35 AM 36.4450 -105.4842 59° Northeast 484 557 37,000  Level Albuquerque Center
Fri 11:43:37 AM 36.5108 -105.3494 59° Northeast 479 551 37,000  Level Albuquerque Center
Fri 11:44:39 AM 36.5861 -105.1900 60° Northeast 478 550 37,000  Level Albuquerque Center
Fri 11:45:41 AM 36.6511 -105.0536 59° Northeast 477 549 37,000  Level Albuquerque Center
Fri 11:46:43 AM 36.7247 -104.8961 60° Northeast 475 547 37,000  Level Albuquerque Center
Fri 11:47:45 AM 36.7894 -104.7608 59° Northeast 474 545 37,000  Level Albuquerque Center
Fri 11:48:47 AM 36.8631 -104.6042 60° Northeast 472 543 37,000  Level Albuquerque Center
Fri 11:49:49 AM 36.9264 -104.4678 60° Northeast 473 544 37,000  Level Albuquerque Center
Fri 11:50:52 AM 37.0003 -104.3108 59° Northeast 472 543 37,000  Level Albuquerque Center
Fri 11:51:54 AM 37.0642 -104.1739 60° Northeast 475 547 37,000  Level Albuquerque Center
Fri 11:52:56 AM 37.1386 -104.0139 60° Northeast 478 550 37,000  Level Albuquerque Center
Fri 11:53:58 AM 37.2000 -103.8778 60° Northeast 479 551 37,000  Level Albuquerque Center
Fri 11:55:00 AM 37.2753 -103.7158 60° Northeast 480 552 37,000  Level Albuquerque Center
Fri 11:55:59 AM 37.3372 -103.5778 61° Northeast 477 549 37,000 149 Level Denver Center
Fri 11:57:01 AM 37.4003 -103.4389 60° Northeast 479 551 37,300 774 Climbing Denver Center
Fri 11:58:03 AM 37.4747 -103.2761 60° Northeast 482 555 38,600 823 Climbing Denver Center
Fri 11:59:05 AM 37.5381 -103.1339 61° Northeast 485 558 39,000 194 Climbing Denver Center
Fri 12:00:07 PM 37.6117 -102.9692 61° Northeast 485 558 39,000  Level Denver Center
Fri 12:01:09 PM 37.6742 -102.8269 61° Northeast 484 557 39,000  Level Denver Center
Fri 12:02:11 PM 37.7472 -102.6603 61° Northeast 485 558 39,000  Level Denver Center
Fri 12:03:13 PM 37.8114 -102.5189 60° Northeast 485 558 39,000  Level Denver Center
Fri 12:04:15 PM 37.8839 -102.3525 61° Northeast 485 558 39,000  Level Denver Center
Fri 12:05:17 PM 37.9453 -102.2100 61° Northeast 481 554 39,000  Level Denver Center
Fri 12:06:19 PM 38.0181 -102.0422 61° Northeast 485 558 39,000  Level Denver Center
Fri 12:07:21 PM 38.0803 -101.9008 61° Northeast 482 555 39,000  Level Denver Center
Fri 12:08:23 PM 38.1514 -101.7328 62° Northeast 484 557 39,000  Level Denver Center
Fri 12:09:25 PM 38.2122 -101.5908 61° Northeast 479 551 39,000  Level Denver Center
Fri 12:10:27 PM 38.2833 -101.4225 62° Northeast 484 557 39,000  Level Denver Center
Fri 12:11:29 PM 38.3456 -101.2792 61° Northeast 484 557 39,000  Level Denver Center
Fri 12:12:31 PM 38.4067 -101.1347 62° Northeast 486 559 39,000  Level Denver Center
Fri 12:13:33 PM 38.4742 -100.9733 62° Northeast 485 558 39,000  Level Denver Center
Fri 12:14:35 PM 38.5453 -100.8056 62° Northeast 483 556 39,000  Level Denver Center
Fri 12:15:37 PM 38.6050 -100.6583 63° Northeast 487 560 39,000  Level Denver Center
Fri 12:16:40 PM 38.6758 -100.4883 62° Northeast 486 559 39,000  Level Denver Center
Fri 12:17:42 PM 38.7356 -100.3422 62° Northeast 485 558 39,000  Level Denver Center
Fri 12:18:44 PM 38.8056 -100.1736 62° Northeast 482 555 39,000  Level Denver Center
Fri 12:19:46 PM 38.8642 -100.0269 63° Northeast 483 556 39,000  Level Denver Center
Fri 12:20:48 PM 38.9336 -99.8544 63° Northeast 482 555 39,000  Level Denver Center
Fri 12:21:50 PM 38.9939 -99.7050 63° Northeast 475 547 39,000  Level Denver Center
Fri 12:22:52 PM 39.0544 -99.5544 63° Northeast 475 547 39,000  Level Denver Center
Fri 12:23:54 PM 39.1144 -99.4053 63° Northeast 471 542 39,000  Level Denver Center
Fri 12:24:56 PM 39.1728 -99.2581 63° Northeast 466 536 39,000  Level Denver Center
Fri 12:25:58 PM 39.2361 -99.0961 63° Northeast 465 535 39,000  Level Denver Center
Fri 12:27:12 PM 39.3122 -98.9044 63° Northeast 460 529 39,000  Level Denver Center
Fri 12:28:14 PM 39.3689 -98.7592 63° Northeast 455 524 39,000  Level Denver Center
Fri 12:29:16 PM 39.4253 -98.6131 63° Northeast 455 524 39,000  Level Denver Center
Fri 12:30:19 PM 39.4817 -98.4672 63° Northeast 454 522 39,000  Level Denver Center
Fri 12:31:21 PM 39.5392 -98.3169 64° Northeast 461 531 39,000  Level Denver Center
Fri 12:33:08 PM 39.6411 -98.0503 64° Northeast 462 532 39,000  Level Minneapolis Center
Fri 12:34:09 PM 39.6975 -97.9006 64° Northeast 463 533 39,000  Level Minneapolis Center
Fri 12:35:11 PM 39.7550 -97.7514 63° Northeast 463 533 39,000  Level Minneapolis Center
Fri 12:36:13 PM 39.8208 -97.5717 64° Northeast 461 531 39,000  Level Minneapolis Center
Fri 12:37:14 PM 39.8781 -97.4211 64° Northeast 463 533 39,000  Level Minneapolis Center
Fri 12:38:16 PM 39.9269 -97.2900 64° Northeast 462 532 39,000  Level Minneapolis Center
Fri 12:39:18 PM 39.9936 -97.1083 64° Northeast 463 533 39,000  Level Minneapolis Center
Fri 12:40:20 PM 40.0486 -96.9583 64° Northeast 460 529 39,000  Level Minneapolis Center
Fri 12:41:21 PM 40.1053 -96.8067 64° Northeast 465 535 39,000  Level Minneapolis Center
Fri 12:42:23 PM 40.1597 -96.6531 65° Northeast 465 535 39,000  Level Minneapolis Center
Fri 12:43:25 PM 40.2150 -96.5006 65° Northeast 466 536 39,000  Level Minneapolis Center
Fri 12:44:27 PM 40.2714 -96.3464 64° Northeast 469 540 39,000  Level Minneapolis Center
Fri 12:45:28 PM 40.3256 -96.1928 65° Northeast 469 540 39,000  Level Minneapolis Center
Fri 12:46:30 PM 40.3919 -96.0064 65° Northeast 472 543 39,000  Level Minneapolis Center
Fri 12:47:32 PM 40.4467 -95.8486 65° Northeast 474 545 39,000  Level Minneapolis Center
Fri 12:48:34 PM 40.5025 -95.6947 64° Northeast 473 544 39,000  Level Minneapolis Center
Fri 12:49:36 PM 40.5553 -95.5411 66° East 467 537 39,000  Level Minneapolis Center
Fri 12:50:37 PM 40.6089 -95.3869 65° Northeast 465 535 39,000  Level Minneapolis Center
Fri 12:51:39 PM 40.6636 -95.2336 65° Northeast 465 535 39,000  Level Minneapolis Center
Fri 12:52:41 PM 40.7256 -95.0506 66° East 461 531 39,000  Level Minneapolis Center
Fri 12:53:43 PM 40.7792 -94.8978 65° Northeast 461 531 39,000  Level Minneapolis Center
Fri 12:54:45 PM 40.8317 -94.7431 66° East 462 532 39,000  Level Minneapolis Center
Fri 12:55:47 PM 40.8828 -94.5892 66° East 460 529 39,000  Level Minneapolis Center
Fri 12:56:49 PM 40.9386 -94.4217 66° East 461 531 39,000  Level Minneapolis Center
Fri 12:57:50 PM 40.9897 -94.2681 66° East 460 529 39,000  Level Minneapolis Center
Fri 12:58:52 PM 41.0408 -94.1133 66° East 461 531 39,000  Level Minneapolis Center
Fri 12:59:54 PM 41.0933 -93.9583 66° East 462 532 39,000  Level Minneapolis Center
Fri 01:00:56 PM 41.1453 -93.8025 66° East 463 533 39,000  Level Minneapolis Center
Fri 01:01:58 PM 41.2047 -93.6181 67° East 458 527 39,000  Level Minneapolis Center
Fri 01:03:00 PM 41.2586 -93.4636 65° Northeast 460 529 39,000  Level Minneapolis Center
Fri 01:04:01 PM 41.3172 -93.3147 62° Northeast 458 527 39,000  Level Minneapolis Center
Fri 01:05:03 PM 41.3744 -93.1656 63° Northeast 455 524 39,000  Level Minneapolis Center
Fri 01:06:05 PM 41.4311 -93.0158 63° Northeast 455 524 39,000  Level Minneapolis Center
Fri 01:07:07 PM 41.4878 -92.8675 63° Northeast 453 521 39,000  Level Minneapolis Center
Fri 01:08:09 PM 41.5553 -92.6864 63° Northeast 455 524 39,000  Level Minneapolis Center
Fri 01:08:58 PM 41.6017 -92.5631 63° Northeast 451 519 39,000  Level Chicago Center
Fri 01:10:00 PM 41.6569 -92.4136 64° Northeast 453 521 39,000  Level Chicago Center
Fri 01:11:02 PM 41.7119 -92.2647 64° Northeast 452 520 39,000  Level Chicago Center
Fri 01:12:04 PM 41.7672 -92.1156 64° Northeast 451 519 39,000  Level Chicago Center
Fri 01:13:06 PM 41.8219 -91.9661 64° Northeast 452 520 39,000  Level Chicago Center
Fri 01:14:08 PM 41.8878 -91.7864 64° Northeast 452 520 39,000  Level Chicago Center
Fri 01:15:11 PM 41.9294 -91.6281 70° East 457 526 39,000  Level Chicago Center
Fri 01:16:13 PM 41.9717 -91.4689 70° East 458 527 39,000  Level Chicago Center
Fri 01:17:15 PM 42.0128 -91.3089 71° East 459 528 39,000 -435 Level Chicago Center
Fri 01:18:17 PM 42.0619 -91.1175 71° East 459 528 38,100 -919 Descending Chicago Center
Fri 01:19:19 PM 42.1028 -90.9594 71° East 456 525 37,100 -919 Descending Chicago Center
Fri 01:20:21 PM 42.1422 -90.7975 72° East 461 531 36,200 -919 Descending Chicago Center
Fri 01:21:23 PM 42.1844 -90.6350 71° East 464 534 35,200 -919 Descending Chicago Center
Fri 01:22:25 PM 42.2258 -90.4714 71° East 465 535 34,300 -1,403 Descending Chicago Center
Fri 01:23:27 PM 42.2744 -90.2764 71° East 463 533 32,300 -1,935 Descending Chicago Center
Fri 01:24:29 PM 42.3133 -90.1186 72° East 450 518 30,300 -1,887 Descending Chicago Center
Fri 01:25:31 PM 42.3486 -89.9675 72° East 432 497 28,400 -1,935 Descending Chicago Center
Fri 01:26:33 PM 42.3881 -89.8072 72° East 416 479 26,300 -1,645 Descending Chicago Center
Fri 01:27:35 PM 42.4236 -89.6642 71° East 405 466 25,000 -624 Descending Chicago Center
Fri 01:28:38 PM 42.4564 -89.5264 72° East 390 449 25,000 -1,152 Level Chicago Center
Fri 01:29:40 PM 42.4967 -89.3619 72° East 394 453 22,600 -1,440 Descending Chicago Center
Fri 01:30:43 PM 42.5292 -89.2222 72° East 388 447 22,000 -1,306 Descending Chicago Center
Fri 01:31:44 PM 42.5597 -89.0944 72° East 359 413 19,900 -2,049 Descending Chicago Center
Fri 01:32:46 PM 42.5850 -88.9558 76° East 375 432 17,800 -1,935 Descending Chicago Center
Fri 01:33:48 PM 42.6106 -88.8194 76° East 375 432 15,900 -2,226 Descending Chicago Center
Fri 01:34:50 PM 42.6397 -88.6614 76° East 372 428 13,200 -2,177 Descending Chicago Center
Fri 01:35:52 PM 42.6631 -88.5306 76° East 360 414 11,400 -1,548 Descending Chicago Center
Fri 01:36:54 PM 42.6847 -88.4111 76° East 336 387 10,000 -1,500 Descending Chicago Center
Fri 01:37:56 PM 42.7050 -88.3019 76° East 311 358 8,300 -1,306 Descending Chicago Center
Fri 01:38:58 PM 42.7556 -88.2539 35° Northeast 254 292 7,300 -1,056 Descending Chicago Center
Fri 01:40:01 PM 42.8217 -88.2367 11° North 223 257 6,100 -1,248 Descending Chicago Center
Fri 01:41:03 PM 42.8606 -88.1811 46° Northeast 208 239 4,700 -1,220 Descending Chicago Center
Fri 01:42:04 PM 42.8833 -88.1167 64° Northeast 196 226 3,600 -906 Descending KMKE
Fri 01:43:22 PM 42.9167 -88.0333 61° Northeast 156 180 2,600 -800 Descending KMKE
Fri 01:44:04 PM 42.9167 -88.0000 90° East 142 163 2,000 -778 Descending KMKE
Fri 01:45:10 PM 42.9333 -87.9500 66° East 136 157 1,200 -727 Descending KMKE
Fri 01:47:00 PM 42.9469 -87.8971 56° Northeast  Level Estimated

Login

Don't have an account? Register now (free) for customized features, flight alerts, and more!